sensor_id;sensor_type;location;lat;lon;timestamp;P1;durP1;ratioP1;P2;durP2;ratioP2
23682;SDS011;24897;53.514;10.482;2022-08-01T00:01:33;102.17;;;88.13;;
23682;SDS011;24897;53.514;10.482;2022-08-01T00:04:17;107.77;;;94.57;;
23682;SDS011;24897;53.514;10.482;2022-08-01T00:07:01;104.20;;;92.73;;
23682;SDS011;24897;53.514;10.482;2022-08-01T00:09:46;109.20;;;94.47;;
23682;SDS011;24897;53.514;10.482;2022-08-01T00:12:30;105.83;;;94.20;;
23682;SDS011;24897;53.514;10.482;2022-08-01T00:15:15;113.50;;;98.90;;
23682;SDS011;24897;53.514;10.482;2022-08-01T00:18:00;112.67;;;98.53;;
23682;SDS011;24897;53.514;10.482;2022-08-01T00:20:44;110.70;;;98.27;;
23682;SDS011;24897;53.514;10.482;2022-08-01T00:23:29;113.10;;;100.17;;
23682;SDS011;24897;53.514;10.482;2022-08-01T00:26:14;116.57;;;100.37;;
23682;SDS011;24897;53.514;10.482;2022-08-01T00:28:58;113.00;;;100.63;;
23682;SDS011;24897;53.514;10.482;2022-08-01T00:31:42;125.00;;;110.63;;
23682;SDS011;24897;53.514;10.482;2022-08-01T00:34:26;116.33;;;101.43;;
23682;SDS011;24897;53.514;10.482;2022-08-01T00:37:10;123.93;;;105.97;;
23682;SDS011;24897;53.514;10.482;2022-08-01T00:39:55;112.73;;;99.87;;
23682;SDS011;24897;53.514;10.482;2022-08-01T00:42:39;118.47;;;101.47;;
23682;SDS011;24897;53.514;10.482;2022-08-01T00:45:25;129.83;;;114.17;;
23682;SDS011;24897;53.514;10.482;2022-08-01T00:48:09;101.40;;;90.57;;
23682;SDS011;24897;53.514;10.482;2022-08-01T00:50:53;110.87;;;98.03;;
23682;SDS011;24897;53.514;10.482;2022-08-01T00:53:38;98.37;;;87.80;;
23682;SDS011;24897;53.514;10.482;2022-08-01T00:56:24;98.13;;;87.40;;
23682;SDS011;24897;53.514;10.482;2022-08-01T00:59:11;109.03;;;97.13;;
23682;SDS011;24897;53.514;10.482;2022-08-01T01:01:56;101.27;;;90.30;;
23682;SDS011;24897;53.514;10.482;2022-08-01T01:04:41;98.87;;;88.20;;
23682;SDS011;24897;53.514;10.482;2022-08-01T01:10:31;95.97;;;83.93;;
23682;SDS011;24897;53.514;10.482;2022-08-01T01:13:23;96.17;;;82.90;;
23682;SDS011;24897;53.514;10.482;2022-08-01T01:16:21;91.50;;;77.60;;
23682;SDS011;24897;53.514;10.482;2022-08-01T01:19:07;99.97;;;83.30;;
23682;SDS011;24897;53.514;10.482;2022-08-01T01:27:57;96.53;;;78.33;;
23682;SDS011;24897;53.514;10.482;2022-08-01T01:30:49;85.47;;;70.93;;
23682;SDS011;24897;53.514;10.482;2022-08-01T01:33:36;96.13;;;77.40;;
23682;SDS011;24897;53.514;10.482;2022-08-01T01:36:23;92.13;;;74.10;;
23682;SDS011;24897;53.514;10.482;2022-08-01T01:39:09;95.87;;;78.97;;
23682;SDS011;24897;53.514;10.482;2022-08-01T01:41:54;89.03;;;74.13;;
23682;SDS011;24897;53.514;10.482;2022-08-01T01:44:40;91.20;;;72.53;;
23682;SDS011;24897;53.514;10.482;2022-08-01T01:47:27;107.40;;;84.97;;
23682;SDS011;24897;53.514;10.482;2022-08-01T01:50:12;90.73;;;70.97;;
23682;SDS011;24897;53.514;10.482;2022-08-01T01:52:57;96.17;;;74.23;;
23682;SDS011;24897;53.514;10.482;2022-08-01T01:55:43;94.83;;;71.97;;
23682;SDS011;24897;53.514;10.482;2022-08-01T01:58:32;91.43;;;74.27;;
23682;SDS011;24897;53.514;10.482;2022-08-01T02:01:18;82.73;;;70.23;;
23682;SDS011;24897;53.514;10.482;2022-08-01T02:04:05;89.37;;;72.57;;
23682;SDS011;24897;53.514;10.482;2022-08-01T02:06:50;88.03;;;72.47;;
23682;SDS011;24897;53.514;10.482;2022-08-01T02:09:37;89.33;;;70.20;;
23682;SDS011;24897;53.514;10.482;2022-08-01T02:12:23;84.07;;;68.37;;
23682;SDS011;24897;53.514;10.482;2022-08-01T02:15:08;84.37;;;67.90;;
23682;SDS011;24897;53.514;10.482;2022-08-01T02:17:54;86.10;;;67.07;;
23682;SDS011;24897;53.514;10.482;2022-08-01T02:20:41;78.47;;;65.00;;
23682;SDS011;24897;53.514;10.482;2022-08-01T02:23:31;77.73;;;67.50;;
23682;SDS011;24897;53.514;10.482;2022-08-01T02:26:17;83.13;;;70.50;;
23682;SDS011;24897;53.514;10.482;2022-08-01T02:29:05;95.50;;;82.90;;
23682;SDS011;24897;53.514;10.482;2022-08-01T02:31:51;78.40;;;64.63;;
23682;SDS011;24897;53.514;10.482;2022-08-01T02:34:40;88.23;;;71.77;;
23682;SDS011;24897;53.514;10.482;2022-08-01T02:37:29;79.13;;;65.63;;
23682;SDS011;24897;53.514;10.482;2022-08-01T02:40:17;78.97;;;64.17;;
23682;SDS011;24897;53.514;10.482;2022-08-01T02:43:02;75.03;;;64.57;;
23682;SDS011;24897;53.514;10.482;2022-08-01T02:45:50;78.37;;;63.60;;
23682;SDS011;24897;53.514;10.482;2022-08-01T02:48:37;78.67;;;62.33;;
23682;SDS011;24897;53.514;10.482;2022-08-01T02:51:23;70.03;;;59.97;;
23682;SDS011;24897;53.514;10.482;2022-08-01T02:54:09;73.17;;;60.07;;
23682;SDS011;24897;53.514;10.482;2022-08-01T02:56:55;79.07;;;62.50;;
23682;SDS011;24897;53.514;10.482;2022-08-01T02:59:41;103.00;;;91.67;;
23682;SDS011;24897;53.514;10.482;2022-08-01T03:02:27;75.77;;;67.10;;
23682;SDS011;24897;53.514;10.482;2022-08-01T03:05:13;72.93;;;64.93;;
23682;SDS011;24897;53.514;10.482;2022-08-01T03:07:58;77.13;;;68.77;;
23682;SDS011;24897;53.514;10.482;2022-08-01T03:10:44;73.80;;;65.90;;
23682;SDS011;24897;53.514;10.482;2022-08-01T03:13:30;104.73;;;94.03;;
23682;SDS011;24897;53.514;10.482;2022-08-01T03:16:16;77.87;;;69.63;;
23682;SDS011;24897;53.514;10.482;2022-08-01T03:19:05;81.93;;;73.17;;
23682;SDS011;24897;53.514;10.482;2022-08-01T03:21:53;73.80;;;66.10;;
23682;SDS011;24897;53.514;10.482;2022-08-01T03:24:39;74.57;;;65.67;;
23682;SDS011;24897;53.514;10.482;2022-08-01T03:27:25;76.83;;;68.37;;
23682;SDS011;24897;53.514;10.482;2022-08-01T03:30:10;72.63;;;64.77;;
23682;SDS011;24897;53.514;10.482;2022-08-01T03:32:55;73.80;;;66.00;;
23682;SDS011;24897;53.514;10.482;2022-08-01T03:35:42;74.63;;;66.57;;
23682;SDS011;24897;53.514;10.482;2022-08-01T03:38:31;72.57;;;64.87;;
23682;SDS011;24897;53.514;10.482;2022-08-01T03:41:18;77.27;;;68.80;;
23682;SDS011;24897;53.514;10.482;2022-08-01T03:44:05;80.87;;;72.30;;
23682;SDS011;24897;53.514;10.482;2022-08-01T03:46:56;76.80;;;68.67;;
23682;SDS011;24897;53.514;10.482;2022-08-01T03:49:45;77.37;;;68.87;;
23682;SDS011;24897;53.514;10.482;2022-08-01T03:52:32;75.73;;;65.17;;
23682;SDS011;24897;53.514;10.482;2022-08-01T03:55:17;80.30;;;71.73;;
23682;SDS011;24897;53.514;10.482;2022-08-01T03:58:03;78.83;;;70.43;;
23682;SDS011;24897;53.514;10.482;2022-08-01T04:00:49;75.13;;;65.90;;
23682;SDS011;24897;53.514;10.482;2022-08-01T04:03:33;78.33;;;67.43;;
23682;SDS011;24897;53.514;10.482;2022-08-01T04:06:17;76.90;;;68.73;;
23682;SDS011;24897;53.514;10.482;2022-08-01T04:09:02;92.00;;;82.00;;
23682;SDS011;24897;53.514;10.482;2022-08-01T04:11:47;72.67;;;63.80;;
23682;SDS011;24897;53.514;10.482;2022-08-01T04:14:32;79.90;;;71.17;;
23682;SDS011;24897;53.514;10.482;2022-08-01T04:17:16;79.07;;;69.33;;
23682;SDS011;24897;53.514;10.482;2022-08-01T04:20:01;79.73;;;69.13;;
23682;SDS011;24897;53.514;10.482;2022-08-01T04:22:45;97.03;;;85.83;;
23682;SDS011;24897;53.514;10.482;2022-08-01T04:25:33;73.87;;;65.87;;
23682;SDS011;24897;53.514;10.482;2022-08-01T04:28:19;78.47;;;70.00;;
23682;SDS011;24897;53.514;10.482;2022-08-01T04:31:06;80.97;;;68.30;;
23682;SDS011;24897;53.514;10.482;2022-08-01T04:33:56;86.00;;;74.43;;
23682;SDS011;24897;53.514;10.482;2022-08-01T04:36:41;82.87;;;70.10;;
23682;SDS011;24897;53.514;10.482;2022-08-01T04:39:28;78.20;;;66.97;;
23682;SDS011;24897;53.514;10.482;2022-08-01T04:42:15;83.23;;;72.73;;
23682;SDS011;24897;53.514;10.482;2022-08-01T04:45:00;81.43;;;70.87;;
23682;SDS011;24897;53.514;10.482;2022-08-01T04:47:45;82.30;;;66.70;;
23682;SDS011;24897;53.514;10.482;2022-08-01T04:50:31;80.53;;;67.90;;
23682;SDS011;24897;53.514;10.482;2022-08-01T04:53:16;71.13;;;62.37;;
23682;SDS011;24897;53.514;10.482;2022-08-01T04:56:02;70.63;;;62.00;;
23682;SDS011;24897;53.514;10.482;2022-08-01T04:58:47;83.17;;;70.30;;
23682;SDS011;24897;53.514;10.482;2022-08-01T05:01:31;81.10;;;65.73;;
23682;SDS011;24897;53.514;10.482;2022-08-01T05:04:15;78.20;;;64.23;;
23682;SDS011;24897;53.514;10.482;2022-08-01T05:06:59;83.40;;;68.67;;
23682;SDS011;24897;53.514;10.482;2022-08-01T05:09:44;87.27;;;76.87;;
23682;SDS011;24897;53.514;10.482;2022-08-01T05:12:31;83.53;;;71.93;;
23682;SDS011;24897;53.514;10.482;2022-08-01T05:15:15;76.37;;;62.67;;
23682;SDS011;24897;53.514;10.482;2022-08-01T05:17:59;67.93;;;59.03;;
23682;SDS011;24897;53.514;10.482;2022-08-01T05:20:44;80.13;;;66.47;;
23682;SDS011;24897;53.514;10.482;2022-08-01T05:23:28;70.30;;;60.20;;
23682;SDS011;24897;53.514;10.482;2022-08-01T05:26:12;64.50;;;55.47;;
23682;SDS011;24897;53.514;10.482;2022-08-01T05:28:57;68.07;;;60.03;;
23682;SDS011;24897;53.514;10.482;2022-08-01T05:31:41;62.10;;;53.90;;
23682;SDS011;24897;53.514;10.482;2022-08-01T05:34:25;64.43;;;56.17;;
23682;SDS011;24897;53.514;10.482;2022-08-01T05:37:10;74.77;;;62.20;;
23682;SDS011;24897;53.514;10.482;2022-08-01T05:39:54;56.50;;;50.10;;
23682;SDS011;24897;53.514;10.482;2022-08-01T05:42:39;56.67;;;50.07;;
23682;SDS011;24897;53.514;10.482;2022-08-01T05:45:23;56.07;;;49.97;;
23682;SDS011;24897;53.514;10.482;2022-08-01T05:48:07;52.33;;;46.63;;
23682;SDS011;24897;53.514;10.482;2022-08-01T05:50:51;53.57;;;47.03;;
23682;SDS011;24897;53.514;10.482;2022-08-01T05:53:37;51.97;;;44.97;;
23682;SDS011;24897;53.514;10.482;2022-08-01T05:56:21;54.37;;;46.27;;
23682;SDS011;24897;53.514;10.482;2022-08-01T05:59:05;61.23;;;52.00;;
23682;SDS011;24897;53.514;10.482;2022-08-01T06:01:50;54.10;;;46.07;;
23682;SDS011;24897;53.514;10.482;2022-08-01T06:04:34;68.03;;;55.93;;
23682;SDS011;24897;53.514;10.482;2022-08-01T06:07:18;49.70;;;42.70;;
23682;SDS011;24897;53.514;10.482;2022-08-01T06:10:02;47.20;;;39.73;;
23682;SDS011;24897;53.514;10.482;2022-08-01T06:12:47;43.70;;;37.37;;
23682;SDS011;24897;53.514;10.482;2022-08-01T06:15:31;40.93;;;34.07;;
23682;SDS011;24897;53.514;10.482;2022-08-01T06:18:16;34.10;;;30.30;;
23682;SDS011;24897;53.514;10.482;2022-08-01T06:21:00;35.33;;;30.23;;
23682;SDS011;24897;53.514;10.482;2022-08-01T06:23:44;31.27;;;27.47;;
23682;SDS011;24897;53.514;10.482;2022-08-01T06:26:28;31.70;;;28.23;;
23682;SDS011;24897;53.514;10.482;2022-08-01T06:29:13;30.87;;;27.30;;
23682;SDS011;24897;53.514;10.482;2022-08-01T06:31:57;32.23;;;27.73;;
23682;SDS011;24897;53.514;10.482;2022-08-01T06:34:42;29.87;;;26.67;;
23682;SDS011;24897;53.514;10.482;2022-08-01T06:37:32;29.27;;;26.17;;
23682;SDS011;24897;53.514;10.482;2022-08-01T06:40:16;32.67;;;28.97;;
23682;SDS011;24897;53.514;10.482;2022-08-01T06:43:01;28.43;;;25.43;;
23682;SDS011;24897;53.514;10.482;2022-08-01T06:45:46;29.27;;;26.27;;
23682;SDS011;24897;53.514;10.482;2022-08-01T06:48:33;29.53;;;26.33;;
23682;SDS011;24897;53.514;10.482;2022-08-01T06:51:19;28.20;;;25.20;;
23682;SDS011;24897;53.514;10.482;2022-08-01T06:54:04;27.93;;;25.03;;
23682;SDS011;24897;53.514;10.482;2022-08-01T06:56:48;29.10;;;26.00;;
23682;SDS011;24897;53.514;10.482;2022-08-01T06:59:32;29.07;;;25.97;;
23682;SDS011;24897;53.514;10.482;2022-08-01T07:02:17;28.87;;;24.53;;
23682;SDS011;24897;53.514;10.482;2022-08-01T07:05:02;28.30;;;25.17;;
23682;SDS011;24897;53.514;10.482;2022-08-01T07:07:48;28.33;;;25.40;;
23682;SDS011;24897;53.514;10.482;2022-08-01T07:10:32;27.60;;;24.70;;
23682;SDS011;24897;53.514;10.482;2022-08-01T07:13:17;26.97;;;24.20;;
23682;SDS011;24897;53.514;10.482;2022-08-01T07:16:05;25.43;;;22.93;;
23682;SDS011;24897;53.514;10.482;2022-08-01T07:18:49;30.83;;;27.53;;
23682;SDS011;24897;53.514;10.482;2022-08-01T07:21:33;28.60;;;25.80;;
23682;SDS011;24897;53.514;10.482;2022-08-01T07:24:18;28.20;;;25.37;;
23682;SDS011;24897;53.514;10.482;2022-08-01T07:27:02;27.10;;;24.30;;
23682;SDS011;24897;53.514;10.482;2022-08-01T07:29:47;26.63;;;23.93;;
23682;SDS011;24897;53.514;10.482;2022-08-01T07:32:31;31.60;;;28.00;;
23682;SDS011;24897;53.514;10.482;2022-08-01T07:35:15;29.13;;;26.17;;
23682;SDS011;24897;53.514;10.482;2022-08-01T07:37:59;27.13;;;24.43;;
23682;SDS011;24897;53.514;10.482;2022-08-01T07:40:44;32.33;;;28.40;;
23682;SDS011;24897;53.514;10.482;2022-08-01T07:43:28;32.40;;;27.63;;
23682;SDS011;24897;53.514;10.482;2022-08-01T07:46:14;30.47;;;27.17;;
23682;SDS011;24897;53.514;10.482;2022-08-01T07:48:59;28.23;;;24.90;;
23682;SDS011;24897;53.514;10.482;2022-08-01T07:51:43;27.17;;;24.40;;
23682;SDS011;24897;53.514;10.482;2022-08-01T07:54:27;26.87;;;24.07;;
23682;SDS011;24897;53.514;10.482;2022-08-01T07:57:12;28.97;;;25.30;;
23682;SDS011;24897;53.514;10.482;2022-08-01T07:59:56;28.73;;;25.07;;
23682;SDS011;24897;53.514;10.482;2022-08-01T08:02:40;29.77;;;26.53;;
23682;SDS011;24897;53.514;10.482;2022-08-01T08:05:25;27.40;;;24.50;;
23682;SDS011;24897;53.514;10.482;2022-08-01T08:08:10;29.27;;;25.77;;
23682;SDS011;24897;53.514;10.482;2022-08-01T08:10:55;32.30;;;26.20;;
23682;SDS011;24897;53.514;10.482;2022-08-01T08:13:39;30.07;;;26.67;;
23682;SDS011;24897;53.514;10.482;2022-08-01T08:16:24;26.87;;;23.93;;
23682;SDS011;24897;53.514;10.482;2022-08-01T08:19:08;30.90;;;25.00;;
23682;SDS011;24897;53.514;10.482;2022-08-01T08:21:52;34.30;;;28.37;;
23682;SDS011;24897;53.514;10.482;2022-08-01T08:24:36;32.33;;;26.60;;
23682;SDS011;24897;53.514;10.482;2022-08-01T08:27:21;28.63;;;25.63;;
23682;SDS011;24897;53.514;10.482;2022-08-01T08:30:05;29.50;;;26.17;;
23682;SDS011;24897;53.514;10.482;2022-08-01T08:32:54;32.27;;;26.13;;
23682;SDS011;24897;53.514;10.482;2022-08-01T08:35:41;30.33;;;25.90;;
23682;SDS011;24897;53.514;10.482;2022-08-01T08:38:25;27.90;;;25.00;;
23682;SDS011;24897;53.514;10.482;2022-08-01T08:41:11;28.17;;;23.90;;
23682;SDS011;24897;53.514;10.482;2022-08-01T08:43:55;29.97;;;25.47;;
23682;SDS011;24897;53.514;10.482;2022-08-01T08:46:43;26.10;;;23.50;;
23682;SDS011;24897;53.514;10.482;2022-08-01T08:49:31;25.87;;;23.30;;
23682;SDS011;24897;53.514;10.482;2022-08-01T08:52:17;22.50;;;19.20;;
23682;SDS011;24897;53.514;10.482;2022-08-01T08:55:03;27.90;;;24.93;;
23682;SDS011;24897;53.514;10.482;2022-08-01T08:57:51;24.60;;;21.90;;
23682;SDS011;24897;53.514;10.482;2022-08-01T09:00:36;24.83;;;22.07;;
23682;SDS011;24897;53.514;10.482;2022-08-01T09:03:25;26.67;;;23.70;;
23682;SDS011;24897;53.514;10.482;2022-08-01T09:06:09;26.03;;;23.40;;
23682;SDS011;24897;53.514;10.482;2022-08-01T09:08:54;26.07;;;23.47;;
23682;SDS011;24897;53.514;10.482;2022-08-01T09:11:39;20.20;;;17.90;;
23682;SDS011;24897;53.514;10.482;2022-08-01T09:14:24;23.90;;;19.13;;
23682;SDS011;24897;53.514;10.482;2022-08-01T09:17:13;18.30;;;16.50;;
23682;SDS011;24897;53.514;10.482;2022-08-01T09:19:58;19.87;;;18.07;;
23682;SDS011;24897;53.514;10.482;2022-08-01T09:22:42;18.98;;;17.02;;
23682;SDS011;24897;53.514;10.482;2022-08-01T09:25:26;21.00;;;19.02;;
23682;SDS011;24897;53.514;10.482;2022-08-01T09:28:16;21.57;;;19.37;;
23682;SDS011;24897;53.514;10.482;2022-08-01T09:31:05;24.27;;;21.83;;
23682;SDS011;24897;53.514;10.482;2022-08-01T09:39:35;23.33;;;21.00;;
23682;SDS011;24897;53.514;10.482;2022-08-01T09:42:26;20.20;;;18.30;;
23682;SDS011;24897;53.514;10.482;2022-08-01T09:45:30;20.70;;;18.60;;
23682;SDS011;24897;53.514;10.482;2022-08-01T09:48:16;19.77;;;17.70;;
23682;SDS011;24897;53.514;10.482;2022-08-01T09:51:01;21.63;;;19.43;;
23682;SDS011;24897;53.514;10.482;2022-08-01T09:53:47;25.10;;;21.00;;
23682;SDS011;24897;53.514;10.482;2022-08-01T09:56:36;20.90;;;18.80;;
23682;SDS011;24897;53.514;10.482;2022-08-01T09:59:22;20.60;;;18.40;;
23682;SDS011;24897;53.514;10.482;2022-08-01T10:02:26;20.97;;;18.77;;
23682;SDS011;24897;53.514;10.482;2022-08-01T10:05:14;18.40;;;16.70;;
23682;SDS011;24897;53.514;10.482;2022-08-01T10:07:59;18.70;;;16.90;;
23682;SDS011;24897;53.514;10.482;2022-08-01T10:14:12;19.67;;;17.80;;
23682;SDS011;24897;53.514;10.482;2022-08-01T10:16:59;19.10;;;17.40;;
23682;SDS011;24897;53.514;10.482;2022-08-01T10:19:44;17.03;;;15.63;;
23682;SDS011;24897;53.514;10.482;2022-08-01T10:22:30;16.33;;;14.93;;
23682;SDS011;24897;53.514;10.482;2022-08-01T10:25:15;16.83;;;15.23;;
23682;SDS011;24897;53.514;10.482;2022-08-01T10:28:04;17.40;;;15.60;;
23682;SDS011;24897;53.514;10.482;2022-08-01T10:30:57;16.60;;;15.10;;
23682;SDS011;24897;53.514;10.482;2022-08-01T10:33:42;15.50;;;14.10;;
23682;SDS011;24897;53.514;10.482;2022-08-01T10:36:27;15.75;;;14.35;;
23682;SDS011;24897;53.514;10.482;2022-08-01T10:39:13;14.95;;;13.35;;
23682;SDS011;24897;53.514;10.482;2022-08-01T10:41:58;15.57;;;14.20;;
23682;SDS011;24897;53.514;10.482;2022-08-01T10:44:43;16.40;;;14.85;;
23682;SDS011;24897;53.514;10.482;2022-08-01T10:47:37;15.30;;;14.10;;
23682;SDS011;24897;53.514;10.482;2022-08-01T10:50:42;15.90;;;14.40;;
23682;SDS011;24897;53.514;10.482;2022-08-01T10:53:29;15.23;;;14.02;;
23682;SDS011;24897;53.514;10.482;2022-08-01T10:56:13;16.88;;;15.38;;
23682;SDS011;24897;53.514;10.482;2022-08-01T10:59:02;17.33;;;15.65;;
23682;SDS011;24897;53.514;10.482;2022-08-01T11:01:57;15.90;;;14.48;;
23682;SDS011;24897;53.514;10.482;2022-08-01T11:08:05;15.75;;;14.38;;
23682;SDS011;24897;53.514;10.482;2022-08-01T11:10:59;15.95;;;14.35;;
23682;SDS011;24897;53.514;10.482;2022-08-01T11:17:43;14.73;;;13.32;;
23682;SDS011;24897;53.514;10.482;2022-08-01T11:20:29;15.98;;;14.48;;
23682;SDS011;24897;53.514;10.482;2022-08-01T11:23:18;15.38;;;13.98;;
23682;SDS011;24897;53.514;10.482;2022-08-01T11:31:53;13.82;;;12.52;;
23682;SDS011;24897;53.514;10.482;2022-08-01T11:35:07;15.02;;;13.63;;
23682;SDS011;24897;53.514;10.482;2022-08-01T11:37:54;15.02;;;13.63;;
23682;SDS011;24897;53.514;10.482;2022-08-01T11:40:40;14.35;;;12.88;;
23682;SDS011;24897;53.514;10.482;2022-08-01T11:43:24;16.27;;;14.70;;
23682;SDS011;24897;53.514;10.482;2022-08-01T11:46:08;17.15;;;15.43;;
23682;SDS011;24897;53.514;10.482;2022-08-01T11:52:19;15.18;;;13.57;;
23682;SDS011;24897;53.514;10.482;2022-08-01T11:55:12;15.13;;;13.63;;
23682;SDS011;24897;53.514;10.482;2022-08-01T11:58:03;16.40;;;14.88;;
23682;SDS011;24897;53.514;10.482;2022-08-01T12:00:50;16.75;;;15.00;;
23682;SDS011;24897;53.514;10.482;2022-08-01T12:03:36;17.27;;;15.60;;
23682;SDS011;24897;53.514;10.482;2022-08-01T12:06:26;17.48;;;15.70;;
23682;SDS011;24897;53.514;10.482;2022-08-01T12:09:15;17.23;;;15.68;;
23682;SDS011;24897;53.514;10.482;2022-08-01T12:12:03;15.00;;;13.50;;
23682;SDS011;24897;53.514;10.482;2022-08-01T12:14:55;15.18;;;13.50;;
23682;SDS011;24897;53.514;10.482;2022-08-01T12:17:45;16.15;;;14.65;;
23682;SDS011;24897;53.514;10.482;2022-08-01T12:20:31;17.17;;;15.35;;
23682;SDS011;24897;53.514;10.482;2022-08-01T12:23:17;15.15;;;13.85;;
23682;SDS011;24897;53.514;10.482;2022-08-01T12:26:01;15.60;;;14.20;;
23682;SDS011;24897;53.514;10.482;2022-08-01T12:28:47;17.95;;;13.82;;
23682;SDS011;24897;53.514;10.482;2022-08-01T12:31:34;15.13;;;13.70;;
23682;SDS011;24897;53.514;10.482;2022-08-01T12:34:25;15.40;;;14.05;;
23682;SDS011;24897;53.514;10.482;2022-08-01T12:37:13;16.17;;;14.70;;
23682;SDS011;24897;53.514;10.482;2022-08-01T12:39:57;14.77;;;13.25;;
23682;SDS011;24897;53.514;10.482;2022-08-01T12:42:42;15.50;;;13.70;;
23682;SDS011;24897;53.514;10.482;2022-08-01T12:45:41;14.30;;;12.90;;
23682;SDS011;24897;53.514;10.482;2022-08-01T12:48:26;14.10;;;12.77;;
23682;SDS011;24897;53.514;10.482;2022-08-01T12:51:11;16.17;;;14.68;;
23682;SDS011;24897;53.514;10.482;2022-08-01T12:53:58;16.88;;;15.18;;
23682;SDS011;24897;53.514;10.482;2022-08-01T12:56:43;14.80;;;13.32;;
23682;SDS011;24897;53.514;10.482;2022-08-01T12:59:27;15.07;;;13.45;;
23682;SDS011;24897;53.514;10.482;2022-08-01T13:02:12;14.55;;;13.20;;
23682;SDS011;24897;53.514;10.482;2022-08-01T13:04:56;14.00;;;12.55;;
23682;SDS011;24897;53.514;10.482;2022-08-01T13:10:28;16.55;;;13.38;;
23682;SDS011;24897;53.514;10.482;2022-08-01T13:13:14;14.55;;;12.98;;
23682;SDS011;24897;53.514;10.482;2022-08-01T13:16:04;15.85;;;14.45;;
23682;SDS011;24897;53.514;10.482;2022-08-01T13:18:50;14.75;;;13.45;;
23682;SDS011;24897;53.514;10.482;2022-08-01T13:21:55;14.52;;;13.32;;
23682;SDS011;24897;53.514;10.482;2022-08-01T13:24:41;13.82;;;12.73;;
23682;SDS011;24897;53.514;10.482;2022-08-01T13:27:25;15.75;;;14.25;;
23682;SDS011;24897;53.514;10.482;2022-08-01T13:30:17;16.88;;;15.27;;
23682;SDS011;24897;53.514;10.482;2022-08-01T13:33:03;15.20;;;13.88;;
23682;SDS011;24897;53.514;10.482;2022-08-01T13:35:49;19.10;;;14.48;;
23682;SDS011;24897;53.514;10.482;2022-08-01T13:38:35;15.57;;;14.27;;
23682;SDS011;24897;53.514;10.482;2022-08-01T13:41:38;14.60;;;13.30;;
23682;SDS011;24897;53.514;10.482;2022-08-01T13:44:22;14.95;;;13.73;;
23682;SDS011;24897;53.514;10.482;2022-08-01T13:47:06;14.18;;;12.88;;
23682;SDS011;24897;53.514;10.482;2022-08-01T13:49:51;15.80;;;14.50;;
23682;SDS011;24897;53.514;10.482;2022-08-01T13:52:36;14.80;;;13.43;;
23682;SDS011;24897;53.514;10.482;2022-08-01T13:55:20;15.57;;;14.35;;
23682;SDS011;24897;53.514;10.482;2022-08-01T13:58:04;15.13;;;13.93;;
23682;SDS011;24897;53.514;10.482;2022-08-01T14:00:49;16.55;;;15.05;;
23682;SDS011;24897;53.514;10.482;2022-08-01T14:03:33;16.70;;;15.10;;
23682;SDS011;24897;53.514;10.482;2022-08-01T14:06:18;16.02;;;14.50;;
23682;SDS011;24897;53.514;10.482;2022-08-01T14:09:05;16.10;;;14.70;;
23682;SDS011;24897;53.514;10.482;2022-08-01T14:11:49;14.93;;;13.63;;
23682;SDS011;24897;53.514;10.482;2022-08-01T14:14:34;15.90;;;14.60;;
23682;SDS011;24897;53.514;10.482;2022-08-01T14:17:18;15.38;;;14.05;;
23682;SDS011;24897;53.514;10.482;2022-08-01T14:20:03;14.90;;;13.38;;
23682;SDS011;24897;53.514;10.482;2022-08-01T14:22:49;14.68;;;13.48;;
23682;SDS011;24897;53.514;10.482;2022-08-01T14:25:33;16.27;;;14.75;;
23682;SDS011;24897;53.514;10.482;2022-08-01T14:28:17;15.48;;;14.07;;
23682;SDS011;24897;53.514;10.482;2022-08-01T14:31:02;16.08;;;14.48;;
23682;SDS011;24897;53.514;10.482;2022-08-01T14:33:47;16.00;;;14.60;;
23682;SDS011;24897;53.514;10.482;2022-08-01T14:36:31;16.52;;;14.93;;
23682;SDS011;24897;53.514;10.482;2022-08-01T14:39:16;14.85;;;13.55;;
23682;SDS011;24897;53.514;10.482;2022-08-01T14:42:00;15.25;;;13.95;;
23682;SDS011;24897;53.514;10.482;2022-08-01T14:44:44;16.95;;;15.10;;
23682;SDS011;24897;53.514;10.482;2022-08-01T14:47:28;16.55;;;14.95;;
23682;SDS011;24897;53.514;10.482;2022-08-01T14:50:13;16.33;;;14.73;;
23682;SDS011;24897;53.514;10.482;2022-08-01T14:52:58;16.27;;;14.77;;
23682;SDS011;24897;53.514;10.482;2022-08-01T14:55:43;16.23;;;14.57;;
23682;SDS011;24897;53.514;10.482;2022-08-01T14:58:27;16.50;;;14.80;;
23682;SDS011;24897;53.514;10.482;2022-08-01T15:01:12;15.80;;;14.50;;
23682;SDS011;24897;53.514;10.482;2022-08-01T15:03:56;14.82;;;13.60;;
23682;SDS011;24897;53.514;10.482;2022-08-01T15:06:41;15.98;;;14.43;;
23682;SDS011;24897;53.514;10.482;2022-08-01T15:09:25;16.38;;;14.80;;
23682;SDS011;24897;53.514;10.482;2022-08-01T15:12:10;15.88;;;14.38;;
23682;SDS011;24897;53.514;10.482;2022-08-01T15:14:54;15.90;;;14.50;;
23682;SDS011;24897;53.514;10.482;2022-08-01T15:17:39;16.00;;;14.40;;
23682;SDS011;24897;53.514;10.482;2022-08-01T15:20:23;15.80;;;14.30;;
23682;SDS011;24897;53.514;10.482;2022-08-01T15:23:09;16.48;;;14.98;;
23682;SDS011;24897;53.514;10.482;2022-08-01T15:25:53;16.30;;;14.85;;
23682;SDS011;24897;53.514;10.482;2022-08-01T15:28:37;16.33;;;14.63;;
23682;SDS011;24897;53.514;10.482;2022-08-01T15:31:21;16.10;;;14.55;;
23682;SDS011;24897;53.514;10.482;2022-08-01T15:34:06;15.75;;;14.35;;
23682;SDS011;24897;53.514;10.482;2022-08-01T15:36:50;16.47;;;14.50;;
23682;SDS011;24897;53.514;10.482;2022-08-01T15:39:35;15.98;;;14.52;;
23682;SDS011;24897;53.514;10.482;2022-08-01T15:42:20;15.80;;;14.45;;
23682;SDS011;24897;53.514;10.482;2022-08-01T15:45:04;16.52;;;14.82;;
23682;SDS011;24897;53.514;10.482;2022-08-01T15:47:50;16.67;;;15.02;;
23682;SDS011;24897;53.514;10.482;2022-08-01T15:50:34;16.10;;;14.60;;
23682;SDS011;24897;53.514;10.482;2022-08-01T15:53:20;16.27;;;14.77;;
23682;SDS011;24897;53.514;10.482;2022-08-01T15:56:05;17.30;;;15.37;;
23682;SDS011;24897;53.514;10.482;2022-08-01T15:58:49;16.77;;;15.10;;
23682;SDS011;24897;53.514;10.482;2022-08-01T16:01:34;16.03;;;14.53;;
23682;SDS011;24897;53.514;10.482;2022-08-01T16:04:19;16.37;;;14.87;;
23682;SDS011;24897;53.514;10.482;2022-08-01T16:07:04;17.07;;;15.57;;
23682;SDS011;24897;53.514;10.482;2022-08-01T16:09:48;16.57;;;15.03;;
23682;SDS011;24897;53.514;10.482;2022-08-01T16:12:33;16.73;;;15.00;;
23682;SDS011;24897;53.514;10.482;2022-08-01T16:15:17;15.97;;;14.50;;
23682;SDS011;24897;53.514;10.482;2022-08-01T16:18:02;16.87;;;15.10;;
23682;SDS011;24897;53.514;10.482;2022-08-01T16:20:51;16.73;;;15.07;;
23682;SDS011;24897;53.514;10.482;2022-08-01T16:23:35;17.07;;;15.13;;
23682;SDS011;24897;53.514;10.482;2022-08-01T16:26:20;16.45;;;14.88;;
23682;SDS011;24897;53.514;10.482;2022-08-01T16:29:04;16.30;;;14.80;;
23682;SDS011;24897;53.514;10.482;2022-08-01T16:31:48;16.57;;;14.97;;
23682;SDS011;24897;53.514;10.482;2022-08-01T16:34:32;17.07;;;15.27;;